createdAt,value
2022-11-27T00:01:33.962Z,101950.84
2022-11-27T00:04:02.038Z,101956.22
2022-11-27T00:06:31.119Z,101957.41
2022-11-27T00:09:01.114Z,101954.81
2022-11-27T00:11:30.640Z,101953.25
2022-11-27T00:13:58.548Z,101951.41
2022-11-27T00:16:27.289Z,101950.84
2022-11-27T00:18:55.374Z,101947.06
2022-11-27T00:21:28.129Z,101937.03
2022-11-27T00:23:58.765Z,101946.41
2022-11-27T00:26:28.261Z,101947.25
2022-11-27T00:28:58.660Z,101945.66
2022-11-27T00:31:29.553Z,101949.44
2022-11-27T00:34:02.056Z,101952.03
2022-11-27T00:36:31.881Z,101953.25
2022-11-27T00:38:59.678Z,101951.66
2022-11-27T00:41:30.141Z,101947.66
2022-11-27T00:43:58.133Z,101959.47
2022-11-27T00:46:29.467Z,101964.03
2022-11-27T00:48:57.988Z,101965.19
2022-11-27T00:51:27.005Z,101960.00
2022-11-27T00:53:55.377Z,101966.81
2022-11-27T00:56:28.617Z,101965.63
2022-11-27T00:58:56.912Z,101962.84
2022-11-27T01:01:27.721Z,101966.03
2022-11-27T01:03:57.148Z,101962.84
2022-11-27T01:06:26.101Z,101961.41
2022-11-27T01:08:53.932Z,101959.47
2022-11-27T01:11:27.953Z,101955.66
2022-11-27T01:13:58.063Z,101954.03
2022-11-27T01:16:27.579Z,101945.84
2022-11-27T01:18:57.921Z,101949.81
2022-11-27T01:21:28.631Z,101947.28
2022-11-27T01:23:56.539Z,101948.06
2022-11-27T01:26:24.154Z,101942.88
2022-11-27T01:28:53.028Z,101942.88
2022-11-27T01:31:23.484Z,101946.47
2022-11-27T01:33:56.357Z,101947.47
2022-11-27T01:36:24.666Z,101939.28
2022-11-27T01:38:52.609Z,101948.28
2022-11-27T01:41:40.385Z,101949.28
2022-11-27T01:44:23.637Z,101950.25
2022-11-27T01:46:58.689Z,101948.44
2022-11-27T01:49:46.175Z,101945.25
2022-11-27T01:52:18.771Z,101946.06
2022-11-27T01:55:05.569Z,101944.88
2022-11-27T01:57:39.243Z,101953.25
2022-11-27T02:00:10.080Z,101941.47
2022-11-27T02:02:41.476Z,101947.28
2022-11-27T02:05:10.955Z,101939.09
2022-11-27T02:07:38.713Z,101942.50
2022-11-27T02:10:07.336Z,101937.69
2022-11-27T02:12:53.702Z,101932.88
2022-11-27T02:15:26.568Z,101932.88
2022-11-27T02:18:11.247Z,101935.88
2022-11-27T02:21:01.328Z,101934.28
2022-11-27T02:23:35.281Z,101933.84
2022-11-27T02:26:02.766Z,101928.91
2022-11-27T02:28:55.740Z,101929.09
2022-11-27T02:31:40.614Z,101927.72
2022-11-27T02:34:23.892Z,101936.50
2022-11-27T02:37:17.561Z,101937.91
2022-11-27T02:40:07.268Z,101943.06
2022-11-27T02:42:40.860Z,101944.63
2022-11-27T02:45:16.295Z,101942.44
2022-11-27T02:47:47.090Z,101946.84
2022-11-27T02:50:22.338Z,101945.66
2022-11-27T02:52:54.079Z,101947.25
2022-11-27T02:55:27.130Z,101943.84
2022-11-27T02:57:57.872Z,101940.47
2022-11-27T03:00:25.941Z,101933.31
2022-11-27T03:02:58.235Z,101933.31
2022-11-27T03:05:32.781Z,101938.87
2022-11-27T03:08:07.996Z,101940.28
2022-11-27T03:10:46.104Z,101941.28
2022-11-27T03:13:13.871Z,101937.09
2022-11-27T03:16:00.107Z,101939.47
2022-11-27T03:18:30.486Z,101946.44
2022-11-27T03:21:08.231Z,101942.03
2022-11-27T03:23:35.789Z,101946.41
2022-11-27T03:26:03.702Z,101940.81
2022-11-27T03:28:32.367Z,101941.06
2022-11-27T03:31:00.112Z,101945.66
2022-11-27T03:33:28.079Z,101952.41
2022-11-27T03:35:55.658Z,101951.63
2022-11-27T03:38:23.280Z,101943.47
2022-11-27T03:41:07.024Z,101940.69
2022-11-27T03:43:41.813Z,101942.63
2022-11-27T03:46:16.677Z,101950.06
2022-11-27T03:49:02.900Z,101947.03
2022-11-27T03:51:53.031Z,101943.97
2022-11-27T03:54:42.707Z,101945.81
2022-11-27T03:57:20.140Z,101948.78
2022-11-27T03:59:54.729Z,101953.66
2022-11-27T04:02:38.394Z,101954.69
2022-11-27T04:05:06.773Z,101950.03
2022-11-27T04:07:34.521Z,101943.62
2022-11-27T04:10:02.611Z,101948.06
2022-11-27T04:12:30.731Z,101946.62
2022-11-27T04:15:06.054Z,101946.03
2022-11-27T04:17:33.962Z,101953.59
2022-11-27T04:20:01.988Z,101949.66
2022-11-27T04:22:30.012Z,101944.22
2022-11-27T04:24:58.023Z,101942.25
2022-11-27T04:27:25.681Z,101936.09
2022-11-27T04:29:53.353Z,101937.09
2022-11-27T04:32:21.222Z,101941.84
2022-11-27T04:34:48.829Z,101937.66
2022-11-27T04:37:16.388Z,101944.84
2022-11-27T04:39:44.300Z,101940.88
2022-11-27T04:42:11.868Z,101935.50
2022-11-27T04:44:39.663Z,101943.62
2022-11-27T04:47:07.735Z,101945.75
2022-11-27T04:49:35.615Z,101945.44
2022-11-27T04:52:03.668Z,101945.66
2022-11-27T04:54:31.577Z,101950.47
2022-11-27T04:56:59.124Z,101943.69
2022-11-27T04:59:26.839Z,101944.84
2022-11-27T05:01:54.827Z,101952.03
2022-11-27T05:04:22.783Z,101948.63
2022-11-27T05:06:50.376Z,101960.00
2022-11-27T05:09:18.604Z,101954.41
2022-11-27T05:11:46.225Z,101955.00
2022-11-27T05:14:18.052Z,101956.03
2022-11-27T05:16:51.947Z,101956.66
2022-11-27T05:19:21.844Z,101951.25
2022-11-27T05:21:50.629Z,101949.47
2022-11-27T05:24:20.193Z,101943.28
2022-11-27T05:26:47.885Z,101952.84
2022-11-27T05:29:16.613Z,101949.06
2022-11-27T05:31:44.742Z,101938.09
2022-11-27T05:34:12.994Z,101952.41
2022-11-27T05:36:42.005Z,101947.66
2022-11-27T05:39:10.840Z,101949.28
2022-11-27T05:41:40.860Z,101960.22
2022-11-27T05:44:15.204Z,101954.66
2022-11-27T05:46:46.081Z,101955.66
2022-11-27T05:49:15.760Z,101962.06
2022-11-27T05:51:50.398Z,101953.03
2022-11-27T05:54:19.197Z,101959.84
2022-11-27T05:56:46.991Z,101962.03
2022-11-27T05:59:15.513Z,101954.47
2022-11-27T06:01:43.641Z,101966.44
2022-11-27T06:04:11.542Z,101962.03
2022-11-27T06:06:39.141Z,101966.84
2022-11-27T06:09:12.420Z,101964.03
2022-11-27T06:11:41.845Z,101970.03
2022-11-27T06:14:10.636Z,101965.22
2022-11-27T06:16:38.500Z,101970.22
2022-11-27T06:19:07.871Z,101970.81
2022-11-27T06:21:35.567Z,101976.00
2022-11-27T06:24:03.292Z,101980.00
2022-11-27T06:26:32.830Z,101979.63
2022-11-27T06:29:01.391Z,101978.38
2022-11-27T06:31:31.971Z,101978.81
2022-11-27T06:34:00.630Z,101974.38
2022-11-27T06:36:34.307Z,101981.34
2022-11-27T06:39:04.219Z,101978.94
2022-11-27T06:41:32.427Z,101973.91
2022-11-27T06:44:01.043Z,101980.53
2022-11-27T06:46:30.102Z,101973.56
2022-11-27T06:48:58.702Z,101984.34
2022-11-27T06:51:28.784Z,101965.78
2022-11-27T06:53:56.958Z,101972.41
2022-11-27T06:56:26.908Z,101972.53
2022-11-27T06:58:56.485Z,101969.41
2022-11-27T07:01:26.583Z,101978.19
2022-11-27T07:03:54.359Z,101982.78
2022-11-27T07:06:24.196Z,101973.97
2022-11-27T07:08:54.072Z,101978.00
2022-11-27T07:11:24.309Z,101976.78
2022-11-27T07:13:56.131Z,101981.56
2022-11-27T07:16:24.630Z,101967.78
2022-11-27T07:18:54.675Z,101971.38
2022-11-27T07:21:23.088Z,101966.81
2022-11-27T07:23:50.970Z,101974.59
2022-11-27T07:26:23.972Z,101976.37
2022-11-27T07:28:52.074Z,101972.00
2022-11-27T07:31:22.453Z,101976.78
2022-11-27T07:33:52.503Z,101970.78
2022-11-27T07:36:25.658Z,101977.16
2022-11-27T07:38:54.893Z,101979.16
2022-11-27T07:41:22.882Z,101974.38
2022-11-27T07:43:50.518Z,101966.34
2022-11-27T07:46:22.171Z,101962.97
2022-11-27T07:48:50.521Z,101960.19
2022-11-27T07:51:20.591Z,101960.47
2022-11-27T07:53:51.655Z,101959.16
2022-11-27T07:56:19.994Z,101956.91
2022-11-27T07:58:48.075Z,101954.00
2022-11-27T08:01:18.482Z,101963.22
2022-11-27T08:03:47.126Z,101956.22
2022-11-27T08:06:17.423Z,101963.03
2022-11-27T08:08:45.871Z,101970.00
2022-11-27T08:11:33.073Z,101970.81
2022-11-27T08:14:03.870Z,101975.41
2022-11-27T08:16:32.730Z,101976.00
2022-11-27T08:19:00.422Z,101971.22
2022-11-27T08:21:29.797Z,101974.00
2022-11-27T08:23:58.196Z,101975.00
2022-11-27T08:26:28.031Z,101974.41
2022-11-27T08:28:57.037Z,101967.59
2022-11-27T08:31:25.511Z,101981.41
2022-11-27T08:33:53.140Z,101980.81
2022-11-27T08:36:20.979Z,101988.19
2022-11-27T08:38:48.940Z,101988.38
2022-11-27T08:41:16.505Z,101989.78
2022-11-27T08:43:44.235Z,101991.19
2022-11-27T08:46:12.433Z,101980.00
2022-11-27T08:48:40.566Z,101974.22
2022-11-27T08:51:11.004Z,101977.19
2022-11-27T08:53:39.323Z,101979.19
2022-11-27T08:56:14.568Z,101980.38
2022-11-27T08:58:43.184Z,101974.59
2022-11-27T09:01:20.106Z,101974.03
2022-11-27T09:03:48.757Z,101972.81
2022-11-27T09:06:21.947Z,101963.22
2022-11-27T09:08:50.554Z,101968.41
2022-11-27T09:11:20.042Z,101966.63
2022-11-27T09:13:47.844Z,101967.81
2022-11-27T09:16:21.056Z,101966.41
2022-11-27T09:18:51.405Z,101977.00
2022-11-27T09:21:21.383Z,101976.63
2022-11-27T09:23:56.087Z,101981.81
2022-11-27T09:26:25.797Z,101978.41
2022-11-27T09:28:54.621Z,101975.00
2022-11-27T09:31:22.984Z,101980.19
2022-11-27T09:33:50.945Z,101975.22
2022-11-27T09:36:20.835Z,101974.00
2022-11-27T09:38:49.468Z,101972.19
2022-11-27T09:41:56.111Z,101967.97
2022-11-27T09:44:35.722Z,101965.16
2022-11-27T09:47:12.975Z,101973.59
2022-11-27T09:49:48.218Z,101970.03
2022-11-27T09:52:37.213Z,101967.59
2022-11-27T09:55:16.161Z,101968.00
2022-11-27T09:57:53.370Z,101956.44
2022-11-27T10:00:21.949Z,101957.84
2022-11-27T10:02:50.166Z,101958.03
2022-11-27T10:05:23.074Z,101957.03
2022-11-27T10:08:06.709Z,101948.84
2022-11-27T10:10:45.584Z,101944.81
2022-11-27T10:13:39.077Z,101943.62
2022-11-27T10:16:25.415Z,101944.59
2022-11-27T10:19:06.797Z,101939.41
2022-11-27T10:22:04.593Z,101943.81
2022-11-27T10:24:50.366Z,101938.25
2022-11-27T10:27:21.465Z,101930.03
2022-11-27T10:29:54.067Z,101934.03
2022-11-27T10:32:54.034Z,101934.44
2022-11-27T10:35:19.583Z,101930.66
2022-11-27T10:37:53.557Z,101938.03
2022-11-27T10:40:27.195Z,101939.41
2022-11-27T10:43:05.157Z,101936.03
2022-11-27T10:45:48.242Z,101926.78
2022-11-27T10:48:16.616Z,101921.22
2022-11-27T10:50:48.772Z,101924.59
2022-11-27T10:53:26.657Z,101919.81
2022-11-27T10:56:13.872Z,101916.03
2022-11-27T10:59:06.486Z,101918.16
2022-11-27T11:01:51.573Z,101916.44
2022-11-27T11:04:38.906Z,101920.84
2022-11-27T11:07:25.337Z,101917.41
2022-11-27T11:09:54.521Z,101923.25
2022-11-27T11:12:24.059Z,101911.63
2022-11-27T11:14:59.985Z,101915.09
2022-11-27T11:17:34.596Z,101907.31
2022-11-27T11:20:21.228Z,101912.69
2022-11-27T11:22:49.505Z,101911.72
2022-11-27T11:25:19.612Z,101909.31
2022-11-27T11:27:48.984Z,101910.16
2022-11-27T11:30:26.902Z,101914.50
2022-11-27T11:33:02.585Z,101910.88
2022-11-27T11:35:35.983Z,101911.06
2022-11-27T11:38:06.168Z,101906.03
2022-11-27T11:40:36.937Z,101907.13
2022-11-27T11:43:19.944Z,101902.50
2022-11-27T11:45:48.958Z,101894.78
2022-11-27T11:48:27.665Z,101892.44
2022-11-27T11:51:14.819Z,101898.59
2022-11-27T11:53:45.608Z,101891.00
2022-11-27T11:56:35.495Z,101888.78
2022-11-27T11:59:15.237Z,101886.59
2022-11-27T12:01:56.610Z,101890.09
2022-11-27T12:04:43.928Z,101893.63
2022-11-27T12:07:26.959Z,101884.41
2022-11-27T12:09:54.947Z,101888.47
2022-11-27T12:13:00.547Z,101886.72
2022-11-27T12:15:43.450Z,101891.25
2022-11-27T12:18:43.198Z,101879.66
2022-11-27T12:21:15.208Z,101879.69
2022-11-27T12:23:54.359Z,101873.38
2022-11-27T12:26:43.345Z,101875.56
2022-11-27T12:29:34.064Z,101865.72
2022-11-27T12:32:07.789Z,101861.59
2022-11-27T12:35:15.288Z,101855.62
2022-11-27T12:37:43.325Z,101850.84
2022-11-27T12:40:26.364Z,101851.59
2022-11-27T12:43:16.103Z,101848.59
2022-11-27T12:45:50.159Z,101854.47
2022-11-27T12:48:20.961Z,101847.06
2022-11-27T12:50:53.022Z,101852.47
2022-11-27T12:53:33.375Z,101844.94
2022-11-27T12:56:13.629Z,101852.91
2022-11-27T12:58:47.812Z,101849.59
2022-11-27T13:01:33.733Z,101841.13
2022-11-27T13:04:06.071Z,101845.09
2022-11-27T13:06:40.987Z,101842.38
2022-11-27T13:09:17.261Z,101837.53
2022-11-27T13:11:45.323Z,101847.25
2022-11-27T13:14:20.446Z,101843.44
2022-11-27T13:17:15.716Z,101833.66
2022-11-27T13:19:51.211Z,101834.25
2022-11-27T13:22:34.683Z,101839.78
2022-11-27T13:25:03.630Z,101839.63
2022-11-27T13:27:35.457Z,101838.62
2022-11-27T13:30:09.557Z,101841.44
2022-11-27T13:32:49.892Z,101832.78
2022-11-27T13:35:27.439Z,101831.94
2022-11-27T13:38:05.486Z,101829.56
2022-11-27T13:40:42.999Z,101838.44
2022-11-27T13:43:31.314Z,101842.06
2022-11-27T13:46:14.904Z,101832.56
2022-11-27T13:48:49.173Z,101836.41
2022-11-27T13:51:27.250Z,101833.09
2022-11-27T13:54:07.349Z,101833.63
2022-11-27T13:56:35.614Z,101838.88
2022-11-27T13:59:23.444Z,101835.84
2022-11-27T14:01:58.579Z,101832.03
2022-11-27T14:04:28.479Z,101836.53
2022-11-27T14:07:10.415Z,101831.13
2022-11-27T14:10:00.987Z,101837.06
2022-11-27T14:12:33.056Z,101834.88
2022-11-27T14:15:08.784Z,101825.66
2022-11-27T14:17:42.577Z,101835.91
2022-11-27T14:20:11.363Z,101832.38
2022-11-27T14:23:09.829Z,101837.09
2022-11-27T14:25:38.337Z,101839.41
2022-11-27T14:28:26.069Z,101837.44
2022-11-27T14:30:57.015Z,101836.03
2022-11-27T14:33:31.232Z,101841.06
2022-11-27T14:36:05.448Z,101838.25
2022-11-27T14:38:35.219Z,101838.28
2022-11-27T14:41:11.732Z,101844.50
2022-11-27T14:43:39.503Z,101838.34
2022-11-27T14:46:15.103Z,101829.44
2022-11-27T14:48:44.438Z,101830.75
2022-11-27T14:51:20.939Z,101822.00
2022-11-27T14:53:54.267Z,101822.12
2022-11-27T14:56:22.752Z,101836.84
2022-11-27T14:58:54.336Z,101830.06
2022-11-27T15:01:32.122Z,101824.41
2022-11-27T15:04:01.860Z,101833.16
2022-11-27T15:06:36.586Z,101835.38
2022-11-27T15:09:30.314Z,101840.66
2022-11-27T15:11:56.658Z,101827.22
2022-11-27T15:14:28.467Z,101825.84
2022-11-27T15:16:57.856Z,101837.09
2022-11-27T15:19:36.012Z,101847.28
2022-11-27T15:22:05.120Z,101843.47
2022-11-27T15:24:35.939Z,101845.69
2022-11-27T15:27:15.763Z,101843.72
2022-11-27T15:29:49.269Z,101832.31
2022-11-27T15:32:26.169Z,101834.34
2022-11-27T15:34:54.580Z,101835.12
2022-11-27T15:37:30.771Z,101827.53
2022-11-27T15:39:59.268Z,101830.34
2022-11-27T15:42:27.793Z,101832.72
2022-11-27T15:44:57.351Z,101834.53
2022-11-27T15:47:27.844Z,101828.94
2022-11-27T15:49:59.465Z,101830.69
2022-11-27T15:52:27.951Z,101828.34
2022-11-27T15:54:56.690Z,101821.16
2022-11-27T15:57:26.266Z,101824.53
2022-11-27T15:59:56.817Z,101820.19
2022-11-27T16:02:28.435Z,101823.72
2022-11-27T16:04:56.311Z,101829.34
2022-11-27T16:07:24.193Z,101824.69
2022-11-27T16:09:52.173Z,101818.69
2022-11-27T16:12:20.202Z,101822.31
2022-11-27T16:14:47.873Z,101813.94
2022-11-27T16:17:15.681Z,101812.50
2022-11-27T16:19:44.853Z,101809.50
2022-11-27T16:22:12.913Z,101804.72
2022-11-27T16:24:41.337Z,101807.53
2022-11-27T16:27:09.459Z,101794.38
2022-11-27T16:29:38.451Z,101801.56
2022-11-27T16:32:06.351Z,101802.41
2022-11-27T16:34:35.041Z,101800.00
2022-11-27T16:37:03.590Z,101794.44
2022-11-27T16:39:31.855Z,101807.59
2022-11-27T16:41:59.972Z,101798.41
2022-11-27T16:44:27.858Z,101791.25
2022-11-27T16:46:55.634Z,101795.66
2022-11-27T16:49:24.778Z,101792.47
2022-11-27T16:51:52.746Z,101792.69
2022-11-27T16:54:20.654Z,101792.69
2022-11-27T16:56:48.721Z,101789.69
2022-11-27T16:59:17.407Z,101783.09
2022-11-27T17:01:45.277Z,101788.69
2022-11-27T17:04:20.905Z,101790.47
2022-11-27T17:06:49.687Z,101785.69
2022-11-27T17:09:18.310Z,101779.72
2022-11-27T17:11:48.914Z,101780.91
2022-11-27T17:14:18.536Z,101779.28
2022-11-27T17:16:47.616Z,101780.50
2022-11-27T17:19:16.510Z,101780.09
2022-11-27T17:21:45.009Z,101776.94
2022-11-27T17:24:16.136Z,101774.72
2022-11-27T17:26:47.474Z,101770.13
2022-11-27T17:29:18.550Z,101766.94
2022-11-27T17:31:46.835Z,101770.53
2022-11-27T17:34:16.199Z,101770.72
2022-11-27T17:36:45.472Z,101770.34
2022-11-27T17:39:15.148Z,101775.72
2022-11-27T17:41:45.164Z,101773.50
2022-11-27T17:44:12.922Z,101766.75
2022-11-27T17:46:41.320Z,101768.13
2022-11-27T17:49:09.259Z,101767.09
2022-11-27T17:51:37.010Z,101760.53
2022-11-27T17:54:06.090Z,101755.53
2022-11-27T17:56:35.242Z,101752.53
2022-11-27T17:59:04.191Z,101756.69
2022-11-27T18:01:34.604Z,101761.50
2022-11-27T18:04:05.478Z,101749.69
2022-11-27T18:06:33.607Z,101757.31
2022-11-27T18:09:02.629Z,101761.28
2022-11-27T18:11:33.723Z,101756.28
2022-11-27T18:14:01.828Z,101747.72
2022-11-27T18:16:33.475Z,101753.09
2022-11-27T18:19:07.169Z,101752.06
2022-11-27T18:21:36.485Z,101747.50
2022-11-27T18:27:10.371Z,101751.25
2022-11-27T18:29:41.018Z,101749.47
2022-11-27T18:32:10.800Z,101746.94
2022-11-27T18:34:42.462Z,101739.69
2022-11-27T18:37:12.402Z,101743.97
2022-11-27T18:39:40.908Z,101738.59
2022-11-27T18:42:09.175Z,101738.13
2022-11-27T18:44:44.251Z,101747.66
2022-11-27T18:47:15.756Z,101737.22
2022-11-27T18:49:45.361Z,101748.63
2022-11-27T18:52:13.681Z,101743.97
2022-11-27T18:54:41.507Z,101737.59
2022-11-27T18:57:11.235Z,101740.03
2022-11-27T18:59:43.256Z,101739.41
2022-11-27T19:02:11.651Z,101742.81
2022-11-27T19:04:40.241Z,101749.06
2022-11-27T19:07:08.422Z,101742.09
2022-11-27T19:09:37.422Z,101739.72
2022-11-27T19:12:05.720Z,101747.75
2022-11-27T19:14:34.347Z,101748.63
2022-11-27T19:17:03.382Z,101746.31
2022-11-27T19:22:21.571Z,101734.44
2022-11-27T19:24:49.637Z,101736.88
2022-11-27T19:27:18.973Z,101738.31
2022-11-27T19:29:49.061Z,101736.84
2022-11-27T19:32:17.460Z,101736.94
2022-11-27T19:34:50.059Z,101739.47
2022-11-27T19:37:33.129Z,101738.09
2022-11-27T19:40:04.103Z,101739.31
2022-11-27T19:42:32.657Z,101744.81
2022-11-27T19:45:00.615Z,101754.91
2022-11-27T19:47:28.780Z,101748.69
2022-11-27T19:49:59.008Z,101747.44
2022-11-27T19:52:26.921Z,101743.75
2022-11-27T19:54:55.179Z,101739.84
2022-11-27T19:57:24.542Z,101739.09
2022-11-27T19:59:53.333Z,101743.81
2022-11-27T20:02:23.516Z,101737.94
2022-11-27T20:04:53.308Z,101728.63
2022-11-27T20:07:21.400Z,101732.38
2022-11-27T20:09:53.320Z,101733.03
2022-11-27T20:12:21.790Z,101728.63
2022-11-27T20:14:49.585Z,101739.06
2022-11-27T20:17:19.367Z,101733.81
2022-11-27T20:19:50.707Z,101734.63
2022-11-27T20:22:19.040Z,101737.97
2022-11-27T20:25:04.393Z,101741.59
2022-11-27T20:27:35.524Z,101737.75
2022-11-27T20:30:07.429Z,101735.34
2022-11-27T20:32:40.207Z,101737.31
2022-11-27T20:35:08.977Z,101722.44
2022-11-27T20:37:37.983Z,101733.84
2022-11-27T20:40:08.175Z,101720.28
2022-11-27T20:42:36.288Z,101725.72
2022-11-27T20:45:05.362Z,101717.28
2022-11-27T20:47:34.969Z,101720.31
2022-11-27T20:50:05.556Z,101711.09
2022-11-27T20:52:35.470Z,101710.72
2022-11-27T20:55:03.824Z,101713.16
2022-11-27T20:57:31.754Z,101708.53
2022-11-27T20:59:59.747Z,101699.78
2022-11-27T21:02:27.943Z,101698.37
2022-11-27T21:04:55.793Z,101700.97
2022-11-27T21:07:23.785Z,101699.94
2022-11-27T21:09:54.079Z,101700.97
2022-11-27T21:12:22.044Z,101699.19
2022-11-27T21:14:50.056Z,101691.56
2022-11-27T21:17:19.277Z,101685.91
2022-11-27T21:19:47.353Z,101678.88
2022-11-27T21:22:15.175Z,101676.31
2022-11-27T21:24:43.590Z,101678.41
2022-11-27T21:27:12.202Z,101686.59
2022-11-27T21:29:41.908Z,101679.59
2022-11-27T21:32:10.152Z,101682.81
2022-11-27T21:34:41.124Z,101679.44
2022-11-27T21:37:09.649Z,101682.03
2022-11-27T21:39:38.733Z,101670.84
2022-11-27T21:42:06.950Z,101678.03
2022-11-27T21:44:35.374Z,101675.44
2022-11-27T21:47:06.047Z,101674.47
2022-11-27T21:49:33.600Z,101677.06
2022-11-27T21:52:05.171Z,101681.66
2022-11-27T21:54:34.304Z,101691.63
2022-11-27T21:57:01.902Z,101680.87
2022-11-27T21:59:29.551Z,101682.84
2022-11-27T22:01:57.725Z,101676.69
2022-11-27T22:04:26.000Z,101666.88
2022-11-27T22:06:53.768Z,101678.28
2022-11-27T22:09:21.595Z,101674.91
2022-11-27T22:11:49.497Z,101672.09
2022-11-27T22:14:17.187Z,101668.13
2022-11-27T22:16:46.897Z,101661.72
2022-11-27T22:19:16.437Z,101661.72
2022-11-27T22:21:44.721Z,101663.72
2022-11-27T22:24:18.200Z,101661.53
2022-11-27T22:26:48.480Z,101659.72
2022-11-27T22:29:17.014Z,101649.16
2022-11-27T22:31:44.787Z,101656.94
2022-11-27T22:34:13.426Z,101650.37
2022-11-27T22:36:41.813Z,101644.41
2022-11-27T22:39:09.691Z,101657.34
2022-11-27T22:41:39.584Z,101647.19
2022-11-27T22:44:25.065Z,101645.78
2022-11-27T22:46:53.912Z,101645.78
2022-11-27T22:49:22.468Z,101646.41
2022-11-27T22:51:50.139Z,101637.81
2022-11-27T22:54:18.645Z,101640.00
2022-11-27T22:56:46.974Z,101632.03
2022-11-27T22:59:32.739Z,101633.41
2022-11-27T23:02:03.598Z,101637.41
2022-11-27T23:04:31.680Z,101647.37
2022-11-27T23:06:59.597Z,101643.03
2022-11-27T23:09:29.683Z,101632.25
2022-11-27T23:11:57.868Z,101631.41
2022-11-27T23:14:26.500Z,101638.62
2022-11-27T23:16:54.390Z,101634.25
2022-11-27T23:19:22.048Z,101640.19
2022-11-27T23:21:49.720Z,101634.97
2022-11-27T23:24:17.985Z,101636.16
2022-11-27T23:26:45.964Z,101625.16
2022-11-27T23:29:14.294Z,101621.78
2022-11-27T23:31:42.636Z,101613.63
2022-11-27T23:34:13.652Z,101612.69
2022-11-27T23:36:41.814Z,101613.47
2022-11-27T23:39:12.905Z,101617.06
2022-11-27T23:41:40.962Z,101613.44
2022-11-27T23:44:08.889Z,101614.69
2022-11-27T23:46:38.969Z,101611.06
2022-11-27T23:49:07.007Z,101608.91
2022-11-27T23:51:35.104Z,101613.84
2022-11-27T23:54:08.116Z,101613.06
2022-11-27T23:56:37.130Z,101606.28
2022-11-27T23:59:05.474Z,101603.84
